Time;durP1;ratioP1;P1;durP2;ratioP2;P2;SDS_P1;SDS_P2;PMS_P1;PMS_P2;Temp;Humidity;BMP_temperature;BMP_pressure;BME280_temperature;BME280_humidity;BME280_pressure;Samples;Min_cycle;Max_cycle;Signal;HPM_P1;HPM_P2
2021/04/29 00:09:38;;;;;;;2.53;1.38;;;15.70;60.80;;;;;;20750784;28;20056;-55
2021/04/29 00:19:40;;;;;;;4.35;1.33;;;15.70;60.80;;;;;;20748978;28;20598;-55
2021/04/29 00:29:41;;;;;;;1.60;1.10;;;15.70;61.30;;;;;;20748501;28;20050;-51
2021/04/29 00:39:43;;;;;;;3.38;1.63;;;15.60;61.70;;;;;;20747994;28;20164;-53
2021/04/29 00:49:45;;;;;;;2.47;1.33;;;15.60;62.00;;;;;;20749407;28;20351;-53
2021/04/29 00:59:48;;;;;;;2.78;1.85;;;15.40;62.50;;;;;;20746641;28;20050;-51
2021/04/29 01:10:12;;;;;;;2.93;1.93;;;15.40;63.10;;;;;;20746986;28;20466;-52
2021/04/29 01:20:24;;;;;;;1.65;1.30;;;15.40;63.30;;;;;;20761958;28;20399;-53
2021/04/29 01:30:27;;;;;;;2.80;1.65;;;15.30;64.60;;;;;;20762388;28;20073;-54
2021/04/29 01:40:31;;;;;;;2.20;1.57;;;15.20;65.50;;;;;;20761042;28;20499;-53
2021/04/29 01:50:43;;;;;;;2.03;1.55;;;15.20;66.40;;;;;;20761449;28;20536;-51
2021/04/29 02:00:50;;;;;;;3.80;1.52;;;15.20;67.00;;;;;;20759977;28;20446;-52
2021/04/29 02:10:58;;;;;;;3.25;2.00;;;15.20;67.50;;;;;;20758952;28;20124;-51
2021/04/29 02:21:05;;;;;;;3.28;1.80;;;15.10;68.00;;;;;;20757646;28;20061;-53
2021/04/29 02:31:13;;;;;;;3.05;1.63;;;15.20;68.00;;;;;;20757633;28;20386;-53
2021/04/29 02:41:20;;;;;;;2.22;1.75;;;15.10;68.30;;;;;;20756121;28;20049;-53
2021/04/29 02:51:23;;;;;;;3.07;2.00;;;15.10;68.60;;;;;;20756636;28;20050;-53
2021/04/29 03:01:28;;;;;;;2.75;1.90;;;15.00;68.70;;;;;;20754154;28;20136;-55
2021/04/29 03:11:34;;;;;;;3.85;2.10;;;15.00;68.80;;;;;;20754536;28;20050;-53
2021/04/29 03:21:39;;;;;;;2.72;1.92;;;15.00;68.90;;;;;;20754426;28;20505;-52
2021/04/29 03:31:43;;;;;;;3.43;1.87;;;15.00;68.90;;;;;;20754263;28;20533;-51
2021/04/29 03:41:49;;;;;;;3.05;1.80;;;15.10;68.90;;;;;;20751203;28;20049;-51
2021/04/29 03:51:57;;;;;;;7.03;2.92;;;15.00;69.50;;;;;;20749653;28;20192;-54
2021/04/29 04:02:02;;;;;;;3.75;2.20;;;14.90;69.80;;;;;;20749255;28;20050;-53
2021/04/29 04:12:08;;;;;;;3.65;2.05;;;14.90;69.90;;;;;;20748883;28;20054;-55
2021/04/29 04:22:13;;;;;;;5.57;2.03;;;14.80;70.30;;;;;;20749179;28;20390;-52
2021/04/29 04:32:17;;;;;;;4.23;1.73;;;14.70;70.70;;;;;;20748340;28;20141;-53
2021/04/29 04:42:20;;;;;;;4.53;2.63;;;14.70;70.80;;;;;;20748036;28;20045;-54
2021/04/29 04:52:24;;;;;;;3.45;2.10;;;14.70;70.90;;;;;;20746701;28;20053;-53
2021/04/29 05:02:27;;;;;;;4.57;2.00;;;14.80;70.10;;;;;;20747093;28;20454;-55
2021/04/29 05:12:30;;;;;;;4.63;2.50;;;14.80;70.30;;;;;;20746280;28;20058;-50
2021/04/29 05:22:33;;;;;;;3.85;2.22;;;14.80;70.20;;;;;;20747001;28;20053;-53
2021/04/29 05:32:36;;;;;;;5.97;2.90;;;14.70;70.50;;;;;;20746684;28;20060;-51
2021/04/29 05:42:41;;;;;;;4.28;2.30;;;14.60;71.90;;;;;;20746214;28;20128;-50
2021/04/29 05:52:43;;;;;;;7.60;2.90;;;14.60;72.20;;;;;;20745299;28;20086;-53
2021/04/29 06:02:47;;;;;;;4.43;3.30;;;14.60;72.50;;;;;;20754040;28;20049;-50
2021/04/29 06:12:49;;;;;;;4.47;2.70;;;14.70;71.80;;;;;;20758485;28;20054;-54
2021/04/29 06:22:53;;;;;;;4.97;3.05;;;14.80;70.80;;;;;;20759025;28;20045;-53
2021/04/29 06:32:55;;;;;;;7.10;3.08;;;14.80;70.40;;;;;;20756911;28;20050;-50
2021/04/29 06:42:58;;;;;;;5.88;3.50;;;14.70;70.70;;;;;;20756535;28;20096;-53
2021/04/29 06:53:03;;;;;;;5.15;4.30;;;14.70;70.50;;;;;;20755928;28;20054;-50
2021/04/29 07:03:06;;;;;;;6.87;3.60;;;14.80;70.30;;;;;;20755137;28;20054;-53
2021/04/29 07:13:09;;;;;;;6.43;4.00;;;14.90;70.10;;;;;;20752553;28;20079;-52
2021/04/29 07:23:13;;;;;;;6.27;3.73;;;15.20;69.10;;;;;;20752532;28;20482;-49
2021/04/29 07:33:16;;;;;;;10.00;4.27;;;15.30;68.70;;;;;;20753702;28;20128;-50
2021/04/29 07:43:38;;;;;;;8.82;3.58;;;15.60;67.80;;;;;;20752490;28;20053;-52
2021/04/29 07:54:00;;;;;;;5.20;3.13;;;15.60;67.80;;;;;;20751234;28;20054;-50
2021/04/29 08:04:21;;;;;;;6.75;3.17;;;15.60;69.10;;;;;;20750247;28;20060;-52
2021/04/29 08:14:42;;;;;;;6.47;3.20;;;15.50;71.30;;;;;;20749024;28;20053;-53
2021/04/29 08:25:04;;;;;;;4.05;2.90;;;15.50;71.40;;;;;;20750340;28;20556;-53
2021/04/29 08:35:26;;;;;;;6.03;3.72;;;15.70;70.90;;;;;;20747450;28;20064;-51
2021/04/29 08:45:48;;;;;;;6.05;3.53;;;15.80;69.30;;;;;;20747277;28;20050;-52
2021/04/29 08:56:09;;;;;;;7.15;4.10;;;15.70;69.30;;;;;;20747797;28;20050;-52
2021/04/29 09:06:31;;;;;;;7.28;3.90;;;15.90;69.00;;;;;;20748011;28;20397;-53
2021/04/29 09:16:52;;;;;;;4.70;3.40;;;16.00;70.70;;;;;;20745776;28;20057;-54
2021/04/29 09:27:19;;;;;;;5.70;4.30;;;15.70;71.40;;;;;;20745843;28;20053;-53
2021/04/29 09:37:40;;;;;;;8.00;4.38;;;15.70;71.90;;;;;;20755677;28;20058;-51
2021/04/29 09:47:59;;;;;;;6.05;4.03;;;15.70;71.60;;;;;;20761195;28;20543;-51
2021/04/29 09:58:16;;;;;;;5.72;4.10;;;16.30;70.20;;;;;;20760006;28;20525;-54
2021/04/29 10:08:25;;;;;;;5.82;4.50;;;16.60;68.30;;;;;;20755528;28;20508;-53
2021/04/29 10:18:31;;;;;;;7.22;3.97;;;17.20;65.00;;;;;;20739052;28;20058;-49
2021/04/29 10:28:44;;;;;;;6.80;4.55;;;17.40;62.70;;;;;;20757533;28;20052;-54
2021/04/29 10:38:47;;;;;;;7.75;4.00;;;18.00;61.10;;;;;;20755514;28;20058;-51
2021/04/29 10:48:52;;;;;;;5.05;3.30;;;18.10;60.60;;;;;;20755762;28;20050;-51
2021/04/29 10:59:10;;;;;;;6.50;4.03;;;18.20;59.10;;;;;;20755750;28;20470;-50
2021/04/29 11:09:25;;;;;;;5.85;3.55;;;18.40;58.40;;;;;;20755628;28;20049;-55
2021/04/29 11:19:48;;;;;;;6.32;2.85;;;18.30;57.10;;;;;;20753016;28;20061;-52
2021/04/29 11:30:02;;;;;;;6.97;3.40;;;18.50;55.80;;;;;;20753939;28;20049;-54
2021/04/29 11:40:06;;;;;;;3.40;2.58;;;18.40;56.40;;;;;;20751665;28;20096;-53
2021/04/29 11:50:20;;;;;;;5.75;2.78;;;18.60;54.80;;;;;;20751767;28;20046;-54
2021/04/29 12:00:31;;;;;;;3.78;2.58;;;18.70;53.90;;;;;;20750180;28;20049;-51
2021/04/29 12:11:01;;;;;;;6.00;3.78;;;18.60;53.70;;;;;;20749793;28;20116;-54
2021/04/29 12:21:05;;;;;;;8.55;5.65;;;19.10;51.50;;;;;;20747881;28;20053;-51
2021/04/29 12:31:14;;;;;;;6.63;4.30;;;19.30;50.20;;;;;;20750082;28;20060;-52
2021/04/29 12:41:17;;;;;;;7.43;5.28;;;19.40;50.10;;;;;;20747948;28;20141;-52
2021/04/29 12:51:20;;;;;;;;;;;19.40;50.20;;;;;;20748536;28;20049;-52
2021/04/29 13:01:24;;;;;;;5.10;2.75;;;19.50;49.00;;;;;;20747080;28;19922;-56
2021/04/29 13:11:43;;;;;;;4.23;2.60;;;19.80;49.00;;;;;;20756642;28;20064;-50
2021/04/29 13:21:49;;;;;;;5.57;2.25;;;20.20;48.00;;;;;;20733361;28;20490;-50
2021/04/29 13:33:22;;;;;;;5.75;2.38;;;20.10;46.60;;;;;;20962620;27;59252;-57
2021/04/29 13:43:23;;;;;;;7.05;4.40;;;20.10;47.70;;;;;;20971630;28;20481;-54
2021/04/29 13:53:25;;;;;;;7.70;2.90;;;20.10;48.70;;;;;;20968381;28;20057;-56
2021/04/29 14:03:29;;;;;;;5.47;2.08;;;20.00;47.40;;;;;;20982449;28;20052;-56
2021/04/29 14:13:31;;;;;;;7.13;2.33;;;20.00;46.70;;;;;;21021156;28;20053;-71
2021/04/29 14:23:32;;;;;;;4.60;2.83;;;19.90;46.80;;;;;;20981899;28;20069;-55
2021/04/29 14:33:33;;;;;;;6.50;2.45;;;20.00;46.70;;;;;;20979404;28;20076;-56
2021/04/29 14:43:35;;;;;;;4.80;1.95;;;19.90;46.10;;;;;;20931201;28;20076;-71
2021/04/29 14:53:36;;;;;;;3.83;1.98;;;19.90;45.10;;;;;;20924242;28;20049;-56
2021/04/29 15:03:37;;;;;;;7.57;2.13;;;19.70;44.70;;;;;;20921997;28;20216;-61
2021/04/29 15:13:39;;;;;;;4.13;2.00;;;19.70;45.80;;;;;;20919131;28;20049;-61
2021/04/29 15:23:40;;;;;;;6.18;2.05;;;19.70;45.80;;;;;;20921190;28;20056;-72
2021/04/29 15:33:42;;;;;;;3.83;1.70;;;19.70;43.20;;;;;;20920722;28;20052;-69
2021/04/29 15:43:44;;;;;;;4.10;1.70;;;19.70;43.40;;;;;;20919175;28;20044;-57
2021/04/29 15:53:46;;;;;;;3.97;1.90;;;19.70;42.70;;;;;;20917570;28;20056;-55
2021/04/29 16:03:48;;;;;;;4.80;1.57;;;19.50;41.80;;;;;;20917862;28;20444;-59
2021/04/29 16:13:49;;;;;;;5.93;1.67;;;19.40;42.10;;;;;;20915992;28;20045;-54
2021/04/29 16:23:50;;;;;;;6.95;1.67;;;19.20;42.40;;;;;;20925272;28;20102;-55
2021/04/29 16:33:52;;;;;;;4.88;1.98;;;19.10;42.70;;;;;;20928860;28;20430;-71
2021/04/29 16:43:55;;;;;;;3.75;1.90;;;18.90;43.80;;;;;;20914526;28;20056;-55
2021/04/29 16:53:56;;;;;;;5.47;2.53;;;18.90;47.30;;;;;;20909724;28;20069;-59
2021/04/29 17:03:58;;;;;;;4.53;1.80;;;18.90;43.90;;;;;;20829745;28;20056;-54
2021/04/29 17:14:00;;;;;;;3.97;1.58;;;18.90;44.70;;;;;;20839532;28;20046;-58
2021/04/29 17:24:01;;;;;;;5.57;1.95;;;19.20;44.50;;;;;;20893957;28;20091;-56
2021/04/29 17:34:03;;;;;;;6.10;2.03;;;19.00;44.00;;;;;;20911229;28;20051;-57
2021/04/29 17:44:04;;;;;;;7.55;2.10;;;19.00;42.30;;;;;;20911355;28;20100;-55
2021/04/29 17:54:06;;;;;;;4.70;1.58;;;18.90;42.70;;;;;;20909357;28;20083;-57
2021/04/29 18:04:07;;;;;;;6.95;2.60;;;18.90;43.30;;;;;;20909180;28;20140;-58
2021/04/29 18:14:08;;;;;;;5.63;2.20;;;18.80;44.20;;;;;;20914951;28;20041;-58
2021/04/29 18:24:10;;;;;;;7.07;2.20;;;18.70;43.30;;;;;;20923281;28;20049;-59
2021/04/29 18:34:11;;;;;;;4.85;1.80;;;18.50;42.80;;;;;;20922734;28;20045;-60
2021/04/29 18:44:12;;;;;;;6.93;1.95;;;17.80;43.50;;;;;;20853509;28;20520;-54
2021/04/29 18:54:14;;;;;;;5.25;1.50;;;17.50;45.40;;;;;;20862482;28;20049;-61
2021/04/29 19:04:15;;;;;;;3.97;2.30;;;17.50;44.30;;;;;;20839196;28;20049;-62
2021/04/29 19:14:16;;;;;;;4.82;1.85;;;17.20;44.70;;;;;;20840069;28;20062;-67
2021/04/29 19:24:17;;;;;;;4.00;1.77;;;16.90;45.60;;;;;;20838218;28;20120;-66
2021/04/29 19:34:19;;;;;;;3.85;1.60;;;16.70;46.10;;;;;;20837661;28;20085;-60
2021/04/29 19:44:20;;;;;;;5.60;1.60;;;16.60;47.10;;;;;;20836819;28;20517;-60
2021/04/29 19:54:22;;;;;;;4.72;1.58;;;16.40;46.60;;;;;;20835620;28;20049;-59
2021/04/29 20:04:23;;;;;;;7.05;2.10;;;16.20;46.50;;;;;;20834754;28;20053;-57
2021/04/29 20:14:24;;;;;;;5.57;2.03;;;16.20;45.80;;;;;;20834539;28;20087;-67
2021/04/29 20:24:26;;;;;;;4.80;2.15;;;16.00;46.00;;;;;;20832661;28;20104;-67
2021/04/29 20:34:32;;;;;;;5.20;1.92;;;15.80;46.50;;;;;;20831711;28;20171;-68
2021/04/29 20:44:33;;;;;;;4.97;1.83;;;15.70;47.60;;;;;;20831422;28;20115;-56
2021/04/29 20:54:35;;;;;;;6.78;2.55;;;15.60;47.40;;;;;;20829198;28;20129;-58
2021/04/29 21:04:37;;;;;;;5.28;2.08;;;15.40;47.50;;;;;;20829887;28;20045;-67
2021/04/29 21:14:39;;;;;;;6.13;1.75;;;15.30;47.90;;;;;;20829648;28;20054;-59
2021/04/29 21:24:40;;;;;;;4.90;1.80;;;15.20;48.30;;;;;;20830272;28;20060;-56
2021/04/29 21:34:42;;;;;;;3.45;1.60;;;15.10;49.60;;;;;;20830158;28;20053;-68
2021/04/29 21:44:43;;;;;;;4.68;1.55;;;15.10;50.30;;;;;;20830570;28;20508;-67
2021/04/29 21:54:44;;;;;;;6.38;1.63;;;15.00;50.30;;;;;;20844609;28;20088;-69
2021/04/29 22:04:45;;;;;;;4.53;1.63;;;15.00;50.30;;;;;;20844869;28;20049;-57
2021/04/29 22:14:47;;;;;;;4.90;2.00;;;14.70;51.30;;;;;;20843469;28;20108;-58
2021/04/29 22:24:48;;;;;;;3.22;1.63;;;14.60;51.50;;;;;;20842420;28;20054;-57
2021/04/29 22:34:49;;;;;;;4.32;1.50;;;14.60;51.60;;;;;;20842715;28;20049;-56
2021/04/29 22:44:53;;;;;;;5.50;2.00;;;14.50;51.80;;;;;;20841303;28;20046;-56
2021/04/29 22:54:54;;;;;;;6.17;2.70;;;14.40;51.90;;;;;;20841353;28;20042;-67
2021/04/29 23:04:56;;;;;;;6.47;2.00;;;14.30;52.20;;;;;;20839516;28;20059;-69
2021/04/29 23:14:57;;;;;;;6.53;1.98;;;14.20;52.80;;;;;;20840107;28;20096;-68
2021/04/29 23:24:59;;;;;;;7.88;1.80;;;14.10;52.90;;;;;;20838021;28;20081;-56
2021/04/29 23:35:00;;;;;;;5.03;1.90;;;14.00;53.30;;;;;;20837711;28;20146;-56
2021/04/29 23:45:02;;;;;;;6.55;3.35;;;13.90;54.30;;;;;;20836693;28;20139;-62
2021/04/29 23:55:04;;;;;;;7.43;2.40;;;13.70;55.10;;;;;;20837293;28;20049;-59
